createdAt,value
2019-05-28T00:00:45.255Z,14.52
2019-05-28T00:01:45.306Z,14.44
2019-05-28T00:02:45.379Z,14.35
2019-05-28T00:03:45.403Z,14.34
2019-05-28T00:04:45.450Z,14.37
2019-05-28T00:05:45.558Z,14.27
2019-05-28T00:06:45.561Z,14.29
2019-05-28T00:07:45.626Z,14.27
2019-05-28T00:08:45.653Z,14.32
2019-05-28T00:09:45.691Z,14.32
2019-05-28T00:10:45.741Z,14.21
2019-05-28T00:11:45.787Z,14.21
2019-05-28T00:12:45.868Z,14.25
2019-05-28T00:13:45.885Z,14.27
2019-05-28T00:14:45.935Z,14.20
2019-05-28T00:15:45.986Z,14.29
2019-05-28T00:16:46.107Z,14.29
2019-05-28T00:17:46.112Z,14.20
2019-05-28T00:18:46.148Z,14.25
2019-05-28T00:19:46.175Z,14.25
2019-05-28T00:20:46.224Z,14.24
2019-05-28T00:21:46.288Z,14.19
2019-05-28T00:22:46.350Z,14.19
2019-05-28T00:23:46.383Z,14.19
2019-05-28T00:24:46.418Z,14.14
2019-05-28T00:25:46.469Z,14.17
2019-05-28T00:26:46.513Z,14.20
2019-05-28T00:27:46.583Z,14.24
2019-05-28T00:28:46.632Z,14.21
2019-05-28T00:29:46.662Z,14.19
2019-05-28T00:30:46.714Z,14.27
2019-05-28T00:31:46.756Z,14.19
2019-05-28T00:32:46.833Z,14.29
2019-05-28T00:33:46.855Z,14.24
2019-05-28T00:34:46.902Z,14.24
2019-05-28T00:35:46.952Z,14.24
2019-05-28T00:36:47.006Z,14.28
2019-05-28T00:37:47.077Z,14.20
2019-05-28T00:38:47.091Z,14.21
2019-05-28T00:39:47.145Z,14.29
2019-05-28T00:40:47.190Z,14.27
2019-05-28T00:41:47.248Z,14.19
2019-05-28T00:42:47.359Z,14.21
2019-05-28T00:43:47.355Z,14.21
2019-05-28T00:44:47.387Z,14.24
2019-05-28T00:45:47.433Z,14.27
2019-05-28T00:46:47.479Z,14.20
2019-05-28T00:47:47.538Z,14.20
2019-05-28T00:48:47.595Z,14.24
2019-05-28T00:49:49.742Z,14.25
2019-05-28T00:50:47.679Z,14.28
2019-05-28T00:51:47.727Z,14.27
2019-05-28T00:52:47.770Z,14.25
2019-05-28T00:53:47.886Z,14.19
2019-05-28T00:54:47.892Z,14.19
2019-05-28T00:55:47.919Z,14.17
2019-05-28T00:56:47.977Z,14.17
2019-05-28T00:57:48.012Z,14.19
2019-05-28T00:58:48.082Z,14.20
2019-05-28T00:59:48.115Z,14.14
2019-05-28T01:00:48.180Z,14.24
2019-05-28T01:01:48.211Z,14.27
2019-05-28T01:02:48.270Z,14.21
2019-05-28T01:03:48.343Z,14.25
2019-05-28T01:04:48.377Z,14.20
2019-05-28T01:05:48.419Z,14.29
2019-05-28T01:06:48.477Z,14.21
2019-05-28T01:07:48.495Z,14.21
2019-05-28T01:08:48.565Z,14.21
2019-05-28T01:09:48.591Z,14.21
2019-05-28T01:10:48.640Z,14.21
2019-05-28T01:11:48.689Z,14.24
2019-05-28T01:12:48.739Z,14.29
2019-05-28T01:13:48.810Z,14.29
2019-05-28T01:14:48.869Z,14.29
2019-05-28T01:15:48.882Z,14.20
2019-05-28T01:16:48.945Z,14.19
2019-05-28T01:17:48.983Z,14.20
2019-05-28T01:18:49.026Z,14.20
2019-05-28T01:19:49.099Z,14.25
2019-05-28T01:20:49.124Z,14.21
2019-05-28T01:21:49.174Z,14.21
2019-05-28T01:22:49.243Z,14.20
2019-05-28T01:23:49.269Z,14.14
2019-05-28T01:24:49.344Z,14.14
2019-05-28T01:25:49.419Z,14.10
2019-05-28T01:26:49.418Z,14.19
2019-05-28T01:27:49.475Z,14.19
2019-05-28T01:28:49.508Z,14.17
2019-05-28T01:29:49.576Z,14.21
2019-05-28T01:30:56.209Z,14.19
2019-05-28T01:31:49.656Z,14.17
2019-05-28T01:32:49.706Z,14.16
2019-05-28T01:33:49.753Z,14.17
2019-05-28T01:34:49.889Z,14.19
2019-05-28T01:35:49.874Z,14.14
2019-05-28T01:36:49.910Z,14.13
2019-05-28T01:37:49.944Z,14.16
2019-05-28T01:38:49.997Z,14.19
2019-05-28T01:39:50.045Z,14.17
2019-05-28T01:40:50.110Z,14.25
2019-05-28T01:41:50.203Z,14.20
2019-05-28T01:42:50.191Z,14.10
2019-05-28T01:43:50.233Z,14.17
2019-05-28T01:44:50.283Z,14.14
2019-05-28T01:45:50.360Z,14.19
2019-05-28T01:46:50.389Z,14.16
2019-05-28T01:47:50.426Z,14.13
2019-05-28T01:48:50.542Z,14.19
2019-05-28T01:49:50.530Z,14.12
2019-05-28T01:50:50.643Z,14.06
2019-05-28T01:51:50.619Z,14.10
2019-05-28T01:52:50.672Z,14.12
2019-05-28T01:53:50.723Z,14.10
2019-05-28T01:54:50.766Z,14.07
2019-05-28T01:55:50.863Z,14.14
2019-05-28T01:56:50.870Z,14.12
2019-05-28T01:57:50.917Z,14.13
2019-05-28T01:58:50.958Z,14.07
2019-05-28T01:59:51.010Z,14.04
2019-05-28T02:00:51.097Z,13.96
2019-05-28T02:01:51.106Z,14.02
2019-05-28T02:02:51.165Z,14.01
2019-05-28T02:03:51.197Z,14.01
2019-05-28T02:04:51.284Z,13.99
2019-05-28T02:05:51.316Z,13.96
2019-05-28T02:06:51.457Z,14.01
2019-05-28T02:07:51.402Z,13.99
2019-05-28T02:08:51.454Z,13.96
2019-05-28T02:09:51.489Z,13.99
2019-05-28T02:10:51.538Z,13.99
2019-05-28T02:11:51.616Z,14.02
2019-05-28T02:12:51.638Z,14.02
2019-05-28T02:13:51.689Z,14.04
2019-05-28T02:14:51.730Z,14.02
2019-05-28T02:15:51.785Z,13.96
2019-05-28T02:16:51.856Z,14.04
2019-05-28T02:17:51.922Z,14.04
2019-05-28T02:18:51.932Z,14.02
2019-05-28T02:19:51.972Z,13.99
2019-05-28T02:20:52.020Z,13.98
2019-05-28T02:21:52.087Z,14.01
2019-05-28T02:22:52.118Z,13.98
2019-05-28T02:23:52.167Z,13.99
2019-05-28T02:24:52.263Z,13.98
2019-05-28T02:25:52.263Z,13.95
2019-05-28T02:26:52.342Z,13.89
2019-05-28T02:27:52.356Z,13.88
2019-05-28T02:28:52.409Z,13.88
2019-05-28T02:29:52.452Z,13.88
2019-05-28T02:30:52.501Z,13.88
2019-05-28T02:31:52.578Z,13.88
2019-05-28T02:32:52.598Z,13.84
2019-05-28T02:33:52.653Z,13.87
2019-05-28T02:34:52.694Z,13.80
2019-05-28T02:35:52.743Z,13.88
2019-05-28T02:36:52.807Z,13.84
2019-05-28T02:37:52.858Z,13.79
2019-05-28T02:38:52.884Z,13.87
2019-05-28T02:39:52.941Z,13.77
2019-05-28T02:40:52.995Z,13.74
2019-05-28T02:41:53.031Z,13.83
2019-05-28T02:42:53.102Z,13.81
2019-05-28T02:43:53.273Z,13.76
2019-05-28T02:44:53.178Z,13.73
2019-05-28T02:45:53.235Z,13.81
2019-05-28T02:46:53.306Z,13.84
2019-05-28T02:47:53.339Z,13.70
2019-05-28T02:48:53.370Z,13.81
2019-05-28T02:49:53.419Z,13.76
2019-05-28T02:50:53.512Z,13.79
2019-05-28T02:51:53.526Z,13.79
2019-05-28T02:52:53.585Z,13.80
2019-05-28T02:53:53.618Z,13.81
2019-05-28T02:54:53.657Z,13.76
2019-05-28T02:55:53.704Z,13.83
2019-05-28T02:56:53.772Z,13.76
2019-05-28T02:57:53.827Z,13.76
2019-05-28T02:58:53.853Z,13.76
2019-05-28T02:59:53.899Z,13.79
2019-05-28T03:00:53.949Z,13.81
2019-05-28T03:01:53.994Z,13.77
2019-05-28T03:02:54.066Z,13.71
2019-05-28T03:03:54.094Z,13.81
2019-05-28T03:04:54.139Z,13.74
2019-05-28T03:05:54.203Z,13.76
2019-05-28T03:06:54.236Z,13.71
2019-05-28T03:07:55.704Z,13.76
2019-05-28T03:08:54.358Z,13.71
2019-05-28T03:09:54.384Z,13.73
2019-05-28T03:11:02.519Z,13.61
2019-05-28T03:11:54.483Z,13.59
2019-05-28T03:12:54.539Z,13.59
2019-05-28T03:13:54.596Z,13.56
2019-05-28T03:14:54.621Z,13.58
2019-05-28T03:15:54.686Z,13.61
2019-05-28T03:16:54.760Z,13.67
2019-05-28T03:17:54.774Z,13.58
2019-05-28T03:18:54.830Z,13.58
2019-05-28T03:19:54.862Z,13.63
2019-05-28T03:20:54.916Z,13.56
2019-05-28T03:21:54.958Z,13.62
2019-05-28T03:22:55.005Z,13.55
2019-05-28T03:23:55.346Z,13.58
2019-05-28T03:24:55.103Z,13.58
2019-05-28T03:25:55.149Z,13.55
2019-05-28T03:26:55.197Z,13.56
2019-05-28T03:27:55.247Z,13.59
2019-05-28T03:28:55.325Z,13.56
2019-05-28T03:29:55.348Z,13.55
2019-05-28T03:30:55.433Z,13.56
2019-05-28T03:32:09.589Z,13.56
2019-05-28T03:32:55.501Z,13.55
2019-05-28T03:33:55.556Z,13.59
2019-05-28T03:34:55.594Z,13.59
2019-05-28T03:35:55.629Z,13.58
2019-05-28T03:36:55.681Z,13.59
2019-05-28T03:37:55.734Z,13.61
2019-05-28T03:38:55.813Z,13.61
2019-05-28T03:39:55.820Z,13.65
2019-05-28T03:40:55.869Z,13.69
2019-05-28T03:41:55.931Z,13.67
2019-05-28T03:42:55.966Z,13.71
2019-05-28T03:43:56.036Z,13.79
2019-05-28T03:44:56.063Z,13.70
2019-05-28T03:45:56.116Z,13.70
2019-05-28T03:46:56.164Z,13.70
2019-05-28T03:47:56.209Z,13.79
2019-05-28T03:48:56.273Z,13.67
2019-05-28T03:49:56.319Z,13.80
2019-05-28T03:50:56.349Z,13.83
2019-05-28T03:51:56.401Z,13.83
2019-05-28T03:52:56.495Z,13.73
2019-05-28T03:53:56.495Z,13.77
2019-05-28T03:54:56.571Z,13.76
2019-05-28T03:55:56.591Z,13.80
2019-05-28T03:56:56.639Z,13.74
2019-05-28T03:57:56.691Z,13.71
2019-05-28T03:58:56.741Z,13.84
2019-05-28T03:59:57.973Z,13.87
2019-05-28T04:00:56.836Z,13.81
2019-05-28T04:01:56.885Z,13.80
2019-05-28T04:02:56.925Z,13.89
2019-05-28T04:03:56.976Z,13.88
2019-05-28T04:04:57.054Z,13.87
2019-05-28T04:05:57.076Z,13.89
2019-05-28T04:06:57.117Z,13.98
2019-05-28T04:07:57.172Z,13.88
2019-05-28T04:08:57.227Z,13.96
2019-05-28T04:09:57.288Z,13.94
2019-05-28T04:10:57.310Z,14.06
2019-05-28T04:11:57.376Z,13.99
2019-05-28T04:12:57.422Z,13.99
2019-05-28T04:13:57.462Z,14.01
2019-05-28T04:14:57.523Z,13.96
2019-05-28T04:15:57.558Z,13.96
2019-05-28T04:16:57.642Z,14.09
2019-05-28T04:17:57.702Z,14.13
2019-05-28T04:18:57.695Z,14.07
2019-05-28T04:19:57.774Z,14.20
2019-05-28T04:20:57.800Z,14.19
2019-05-28T04:21:57.845Z,14.17
2019-05-28T04:22:57.899Z,14.12
2019-05-28T04:23:57.946Z,14.16
2019-05-28T04:24:58.015Z,14.16
2019-05-28T04:25:58.061Z,14.19
2019-05-28T04:26:58.137Z,14.19
2019-05-28T04:27:58.139Z,14.19
2019-05-28T04:28:58.212Z,14.16
2019-05-28T04:29:58.232Z,14.14
2019-05-28T04:30:58.300Z,14.19
2019-05-28T04:31:58.330Z,14.21
2019-05-28T04:32:58.387Z,14.31
2019-05-28T04:33:58.541Z,14.17
2019-05-28T04:34:58.495Z,14.19
2019-05-28T04:35:58.552Z,14.20
2019-05-28T04:36:58.571Z,14.19
2019-05-28T04:37:58.615Z,14.20
2019-05-28T04:38:58.661Z,14.14
2019-05-28T04:39:58.733Z,14.20
2019-05-28T04:40:58.778Z,14.19
2019-05-28T04:41:58.811Z,14.20
2019-05-28T04:42:58.856Z,14.25
2019-05-28T04:43:58.912Z,14.28
2019-05-28T04:44:58.959Z,14.20
2019-05-28T04:45:59.041Z,14.28
2019-05-28T04:46:59.060Z,14.21
2019-05-28T04:47:59.103Z,14.21
2019-05-28T04:48:59.150Z,14.29
2019-05-28T04:49:59.197Z,14.29
2019-05-28T04:50:59.284Z,14.28
2019-05-28T04:51:59.297Z,14.21
2019-05-28T04:52:59.346Z,14.20
2019-05-28T04:53:59.393Z,14.21
2019-05-28T04:54:59.438Z,14.35
2019-05-28T04:55:59.624Z,14.27
2019-05-28T04:56:59.536Z,14.29
2019-05-28T04:57:59.594Z,14.34
2019-05-28T04:58:59.638Z,14.35
2019-05-28T04:59:59.683Z,14.38
2019-05-28T05:00:59.755Z,14.39
2019-05-28T05:01:59.780Z,14.37
2019-05-28T05:03:00.883Z,14.38
2019-05-28T05:03:59.880Z,14.37
2019-05-28T05:04:59.922Z,14.46
2019-05-28T05:06:00.131Z,14.53
2019-05-28T05:07:00.020Z,14.53
2019-05-28T05:08:00.069Z,14.56
2019-05-28T05:09:00.120Z,14.61
2019-05-28T05:10:00.173Z,14.64
2019-05-28T05:11:00.230Z,14.61
2019-05-28T05:12:00.269Z,14.64
2019-05-28T05:13:00.351Z,14.67
2019-05-28T05:14:00.360Z,14.61
2019-05-28T05:15:00.453Z,14.64
2019-05-28T05:16:00.478Z,14.52
2019-05-28T05:17:00.524Z,14.46
2019-05-28T05:18:00.555Z,14.42
2019-05-28T05:19:00.604Z,14.46
2019-05-28T05:20:00.704Z,14.47
2019-05-28T05:21:00.724Z,14.42
2019-05-28T05:22:00.830Z,14.46
2019-05-28T05:23:00.812Z,14.53
2019-05-28T05:24:00.844Z,14.54
2019-05-28T05:25:00.895Z,14.52
2019-05-28T05:26:00.946Z,14.49
2019-05-28T05:27:01.386Z,14.50
2019-05-28T05:28:01.052Z,14.50
2019-05-28T05:29:01.146Z,14.39
2019-05-28T05:30:01.138Z,14.46
2019-05-28T05:31:01.186Z,14.52
2019-05-28T05:32:01.240Z,14.46
2019-05-28T05:33:18.601Z,14.53
2019-05-28T05:34:01.345Z,14.32
2019-05-28T05:35:01.406Z,14.39
2019-05-28T05:36:01.428Z,14.37
2019-05-28T05:37:01.499Z,14.38
2019-05-28T05:38:01.530Z,14.46
2019-05-28T05:39:01.580Z,14.49
2019-05-28T05:40:01.659Z,14.56
2019-05-28T05:41:01.673Z,14.50
2019-05-28T05:42:01.747Z,14.57
2019-05-28T05:43:01.800Z,14.57
2019-05-28T05:44:01.902Z,14.56
2019-05-28T05:45:01.872Z,14.64
2019-05-28T05:46:01.915Z,14.60
2019-05-28T05:47:01.987Z,14.68
2019-05-28T05:48:02.047Z,14.65
2019-05-28T05:49:02.064Z,14.68
2019-05-28T05:50:02.224Z,14.60
2019-05-28T05:51:02.210Z,14.62
2019-05-28T05:52:02.246Z,14.56
2019-05-28T05:53:02.286Z,14.64
2019-05-28T05:54:02.352Z,14.69
2019-05-28T05:55:02.379Z,14.65
2019-05-28T05:56:02.406Z,14.80
2019-05-28T05:57:02.486Z,14.72
2019-05-28T05:58:02.540Z,14.68
2019-05-28T05:59:02.546Z,14.57
2019-05-28T06:00:02.600Z,14.56
2019-05-28T06:01:02.685Z,14.67
2019-05-28T06:02:02.698Z,14.67
2019-05-28T06:03:02.762Z,14.60
2019-05-28T06:04:02.800Z,14.64
2019-05-28T06:05:02.842Z,14.64
2019-05-28T06:06:02.892Z,14.64
2019-05-28T06:07:02.942Z,14.64
2019-05-28T06:08:03.020Z,14.64
2019-05-28T06:09:03.046Z,14.68
2019-05-28T06:10:03.081Z,14.60
2019-05-28T06:11:03.131Z,14.53
2019-05-28T06:12:03.187Z,14.54
2019-05-28T06:13:03.248Z,14.53
2019-05-28T06:14:03.276Z,14.62
2019-05-28T06:15:03.356Z,14.65
2019-05-28T06:16:03.375Z,14.60
2019-05-28T06:17:03.428Z,14.65
2019-05-28T06:18:03.570Z,14.64
2019-05-28T06:19:03.684Z,14.68
2019-05-28T06:20:03.566Z,14.65
2019-05-28T06:21:12.603Z,14.71
2019-05-28T06:22:03.677Z,14.84
2019-05-28T06:23:03.737Z,14.88
2019-05-28T06:24:03.762Z,14.94
2019-05-28T06:25:03.854Z,14.88
2019-05-28T06:26:03.863Z,15.03
2019-05-28T06:27:03.904Z,14.94
2019-05-28T06:28:03.977Z,14.88
2019-05-28T06:29:04.021Z,14.81
2019-05-28T06:30:04.066Z,14.72
2019-05-28T06:31:04.100Z,14.75
2019-05-28T06:32:04.159Z,14.62
2019-05-28T06:33:04.205Z,14.61
2019-05-28T06:34:04.276Z,14.57
2019-05-28T06:35:04.295Z,14.56
2019-05-28T06:36:04.346Z,14.47
2019-05-28T06:37:04.399Z,14.53
2019-05-28T06:38:04.489Z,14.53
2019-05-28T06:39:04.518Z,14.54
2019-05-28T06:40:04.539Z,14.71
2019-05-28T06:41:04.591Z,14.68
2019-05-28T06:42:04.636Z,14.65
2019-05-28T06:43:04.689Z,14.65
2019-05-28T06:44:04.752Z,14.71
2019-05-28T06:45:04.788Z,14.75
2019-05-28T06:46:04.830Z,14.71
2019-05-28T06:47:04.882Z,14.69
2019-05-28T06:48:04.933Z,14.78
2019-05-28T06:49:05.121Z,14.56
2019-05-28T06:50:05.022Z,14.62
2019-05-28T06:51:05.080Z,14.64
2019-05-28T06:52:05.150Z,14.62
2019-05-28T06:53:05.181Z,14.62
2019-05-28T06:54:05.239Z,14.65
2019-05-28T06:55:05.277Z,14.56
2019-05-28T06:56:05.382Z,14.50
2019-05-28T06:57:21.765Z,14.49
2019-05-28T06:58:05.423Z,14.42
2019-05-28T06:59:05.645Z,14.35
2019-05-28T07:00:05.533Z,14.32
2019-05-28T07:01:05.683Z,14.31
2019-05-28T07:02:05.613Z,14.37
2019-05-28T07:03:05.678Z,14.25
2019-05-28T07:04:14.098Z,14.24
2019-05-28T07:05:05.771Z,14.19
2019-05-28T07:06:07.834Z,14.27
2019-05-28T07:07:05.867Z,14.24
2019-05-28T07:08:05.905Z,14.19
2019-05-28T07:09:05.952Z,14.24
2019-05-28T07:10:06.020Z,14.13
2019-05-28T07:11:06.066Z,14.02
2019-05-28T07:12:06.103Z,13.96
2019-05-28T07:13:06.149Z,13.99
2019-05-28T07:14:06.190Z,13.94
2019-05-28T07:15:06.270Z,13.96
2019-05-28T07:16:06.297Z,13.87
2019-05-28T07:17:06.336Z,13.84
2019-05-28T07:18:06.380Z,13.88
2019-05-28T07:19:23.087Z,13.87
2019-05-28T07:20:06.511Z,13.91
2019-05-28T07:21:06.528Z,13.96
2019-05-28T07:22:06.576Z,13.95
2019-05-28T07:23:06.622Z,13.95
2019-05-28T07:24:06.676Z,13.92
2019-05-28T07:25:06.742Z,13.99
2019-05-28T07:26:06.774Z,13.96
2019-05-28T07:27:06.826Z,13.96
2019-05-28T07:28:11.143Z,13.94
2019-05-28T07:29:06.914Z,13.94
2019-05-28T07:30:07.071Z,14.01
2019-05-28T07:31:07.008Z,13.99
2019-05-28T07:32:07.069Z,14.07
2019-05-28T07:33:07.131Z,13.99
2019-05-28T07:34:07.166Z,14.01
2019-05-28T07:35:07.226Z,14.12
2019-05-28T07:36:07.262Z,14.13
2019-05-28T07:37:07.408Z,14.27
2019-05-28T07:38:07.349Z,14.20
2019-05-28T07:39:07.398Z,14.17
2019-05-28T07:40:07.467Z,14.38
2019-05-28T07:41:07.492Z,14.32
2019-05-28T07:42:07.558Z,14.39
2019-05-28T07:43:07.594Z,14.50
2019-05-28T07:44:07.692Z,14.56
2019-05-28T07:45:07.742Z,14.60
2019-05-28T07:46:07.738Z,14.65
2019-05-28T07:47:10.968Z,14.69
2019-05-28T07:48:07.851Z,14.75
2019-05-28T07:49:07.896Z,14.71
2019-05-28T07:50:07.959Z,14.80
2019-05-28T07:51:08.005Z,14.68
2019-05-28T07:52:08.027Z,14.68
2019-05-28T07:53:08.075Z,14.72
2019-05-28T07:54:08.133Z,14.74
2019-05-28T07:55:08.212Z,14.74
2019-05-28T07:56:08.254Z,14.84
2019-05-28T07:57:08.275Z,14.91
2019-05-28T07:58:08.321Z,14.88
2019-05-28T07:59:08.387Z,14.90
2019-05-28T08:00:08.442Z,14.98
2019-05-28T08:01:08.496Z,14.94
2019-05-28T08:02:08.516Z,14.95
2019-05-28T08:03:08.566Z,15.02
2019-05-28T08:04:08.619Z,15.05
2019-05-28T08:05:08.682Z,15.09
2019-05-28T08:06:08.731Z,14.99
2019-05-28T08:07:08.761Z,14.94
2019-05-28T08:08:08.833Z,15.05
2019-05-28T08:09:08.855Z,14.94
2019-05-28T08:10:08.936Z,14.86
2019-05-28T08:11:08.986Z,14.93
2019-05-28T08:12:09.006Z,14.90
2019-05-28T08:13:09.058Z,14.90
2019-05-28T08:14:09.107Z,14.88
2019-05-28T08:15:09.153Z,14.90
2019-05-28T08:16:18.240Z,14.75
2019-05-28T08:17:09.251Z,14.78
2019-05-28T08:18:09.308Z,14.74
2019-05-28T08:19:09.362Z,14.69
2019-05-28T08:20:09.402Z,14.81
2019-05-28T08:21:09.467Z,14.71
2019-05-28T08:22:09.509Z,14.75
2019-05-28T08:23:09.547Z,14.75
2019-05-28T08:24:09.595Z,14.75
2019-05-28T08:25:27.214Z,14.80
2019-05-28T08:26:09.722Z,14.74
2019-05-28T08:27:09.738Z,14.90
2019-05-28T08:28:19.931Z,14.84
2019-05-28T08:29:09.857Z,14.88
2019-05-28T08:30:09.897Z,14.95
2019-05-28T08:31:15.565Z,14.94
2019-05-28T08:32:09.978Z,14.93
2019-05-28T08:33:10.172Z,14.95
2019-05-28T08:34:10.102Z,15.08
2019-05-28T08:35:10.141Z,15.08
2019-05-28T08:36:10.204Z,15.11
2019-05-28T08:37:10.250Z,15.08
2019-05-28T08:38:10.278Z,15.15
2019-05-28T08:39:10.324Z,15.15
2019-05-28T08:40:10.382Z,15.26
2019-05-28T08:41:10.425Z,15.30
2019-05-28T08:42:10.492Z,15.26
2019-05-28T08:43:10.625Z,15.24
2019-05-28T08:44:10.571Z,15.31
2019-05-28T08:45:10.620Z,15.38
2019-05-28T08:46:10.670Z,15.52
2019-05-28T08:47:10.748Z,15.31
2019-05-28T08:48:10.770Z,15.39
2019-05-28T08:49:10.815Z,15.35
2019-05-28T08:50:10.901Z,15.41
2019-05-28T08:51:10.920Z,15.48
2019-05-28T08:52:11.019Z,15.46
2019-05-28T08:53:11.021Z,15.48
2019-05-28T08:54:11.082Z,15.52
2019-05-28T08:55:11.118Z,15.56
2019-05-28T08:56:11.213Z,15.51
2019-05-28T08:57:11.261Z,15.52
2019-05-28T08:58:11.311Z,15.61
2019-05-28T08:59:11.313Z,15.60
2019-05-28T09:00:11.425Z,15.70
2019-05-28T09:01:11.415Z,15.75
2019-05-28T09:02:26.375Z,15.72
2019-05-28T09:03:11.508Z,15.79
2019-05-28T09:04:11.559Z,15.61
2019-05-28T09:05:25.642Z,15.72
2019-05-28T09:06:11.669Z,15.61
2019-05-28T09:07:11.753Z,15.68
2019-05-28T09:08:11.753Z,15.72
2019-05-28T09:09:11.808Z,15.78
2019-05-28T09:10:11.853Z,15.59
2019-05-28T09:11:11.979Z,15.51
2019-05-28T09:12:11.969Z,15.64
2019-05-28T09:13:12.029Z,15.64
2019-05-28T09:14:12.052Z,15.60
2019-05-28T09:15:12.192Z,15.48
2019-05-28T09:16:12.150Z,15.54
2019-05-28T09:17:12.197Z,15.56
2019-05-28T09:18:12.279Z,15.46
2019-05-28T09:19:12.294Z,15.46
2019-05-28T09:20:12.361Z,15.51
2019-05-28T09:21:12.402Z,15.33
2019-05-28T09:22:25.146Z,15.38
2019-05-28T09:23:12.528Z,15.36
2019-05-28T09:24:12.549Z,15.38
2019-05-28T09:25:12.593Z,15.23
2019-05-28T09:26:12.652Z,15.23
2019-05-28T09:27:12.694Z,15.19
2019-05-28T09:28:28.216Z,15.23
2019-05-28T09:29:12.795Z,15.15
2019-05-28T09:30:12.847Z,15.21
2019-05-28T09:31:12.894Z,15.15
2019-05-28T09:32:12.949Z,15.13
2019-05-28T09:33:13.030Z,15.01
2019-05-28T09:34:13.039Z,14.99
2019-05-28T09:35:13.086Z,14.99
2019-05-28T09:36:13.140Z,14.98
2019-05-28T09:37:13.184Z,15.03
2019-05-28T09:38:13.270Z,15.02
2019-05-28T09:39:13.293Z,14.98
2019-05-28T09:40:13.339Z,14.95
2019-05-28T09:41:13.381Z,15.03
2019-05-28T09:42:13.537Z,14.95
2019-05-28T09:43:13.533Z,14.95
2019-05-28T09:44:13.553Z,15.13
2019-05-28T09:45:22.595Z,14.95
2019-05-28T09:46:13.627Z,14.99
2019-05-28T09:47:13.683Z,15.02
2019-05-28T09:48:13.739Z,15.11
2019-05-28T09:49:13.819Z,14.94
2019-05-28T09:50:30.190Z,14.95
2019-05-28T09:51:13.879Z,15.01
2019-05-28T09:52:13.918Z,14.99
2019-05-28T09:53:13.974Z,14.94
2019-05-28T09:54:14.038Z,14.91
2019-05-28T09:55:14.080Z,14.88
2019-05-28T09:56:14.190Z,14.84
2019-05-28T09:57:14.168Z,14.67
2019-05-28T09:58:14.218Z,14.71
2019-05-28T09:59:14.307Z,14.68
2019-05-28T10:00:15.154Z,14.61
2019-05-28T10:01:14.374Z,14.60
2019-05-28T10:02:14.415Z,14.61
2019-05-28T10:03:14.498Z,14.61
2019-05-28T10:04:14.534Z,14.62
2019-05-28T10:05:14.598Z,14.56
2019-05-28T10:06:17.456Z,14.54
2019-05-28T10:07:14.728Z,14.52
2019-05-28T10:08:14.724Z,14.42
2019-05-28T10:09:14.755Z,14.52
2019-05-28T10:10:14.824Z,14.53
2019-05-28T10:11:14.846Z,14.39
2019-05-28T10:12:14.900Z,14.44
2019-05-28T10:13:14.964Z,14.50
2019-05-28T10:14:14.999Z,14.54
2019-05-28T10:15:15.073Z,14.52
2019-05-28T10:16:15.105Z,14.65
2019-05-28T10:17:15.147Z,14.68
2019-05-28T10:18:15.190Z,14.75
2019-05-28T10:19:15.243Z,14.86
2019-05-28T10:20:15.312Z,15.01
2019-05-28T10:21:18.857Z,15.06
2019-05-28T10:22:15.395Z,15.08
2019-05-28T10:23:15.447Z,15.09
2019-05-28T10:24:15.490Z,15.11
2019-05-28T10:25:15.564Z,15.15
2019-05-28T10:26:15.582Z,15.12
2019-05-28T10:27:15.638Z,15.13
2019-05-28T10:28:15.679Z,15.30
2019-05-28T10:29:15.738Z,15.26
2019-05-28T10:30:15.808Z,15.36
2019-05-28T10:31:15.828Z,15.33
2019-05-28T10:32:15.887Z,15.30
2019-05-28T10:33:15.984Z,15.24
2019-05-28T10:34:15.976Z,15.11
2019-05-28T10:35:16.041Z,15.02
2019-05-28T10:36:32.190Z,15.02
2019-05-28T10:37:16.199Z,14.86
2019-05-28T10:38:17.156Z,14.72
2019-05-28T10:39:16.221Z,14.68
2019-05-28T10:40:16.309Z,14.65
2019-05-28T10:41:16.339Z,14.64
2019-05-28T10:42:16.382Z,14.57
2019-05-28T10:43:16.427Z,14.60
2019-05-28T10:44:16.469Z,14.57
2019-05-28T10:45:16.545Z,14.72
2019-05-28T10:46:16.676Z,14.68
2019-05-28T10:47:16.619Z,14.69
2019-05-28T10:48:16.679Z,14.80
2019-05-28T10:49:16.712Z,14.71
2019-05-28T10:50:16.782Z,14.74
2019-05-28T10:51:16.830Z,14.88
2019-05-28T10:52:16.859Z,14.87
2019-05-28T10:53:16.908Z,14.87
2019-05-28T10:54:16.959Z,14.93
2019-05-28T10:55:17.011Z,14.99
2019-05-28T10:56:17.083Z,14.98
2019-05-28T10:57:17.108Z,15.12
2019-05-28T10:58:17.159Z,15.08
2019-05-28T10:59:17.201Z,14.99
2019-05-28T11:00:17.258Z,15.02
2019-05-28T11:01:17.376Z,15.08
2019-05-28T11:02:17.351Z,14.98
2019-05-28T11:03:17.406Z,15.01
2019-05-28T11:04:17.450Z,15.01
2019-05-28T11:05:17.581Z,14.87
2019-05-28T11:06:17.579Z,14.87
2019-05-28T11:07:17.595Z,14.80
2019-05-28T11:08:17.651Z,14.81
2019-05-28T11:09:17.693Z,14.68
2019-05-28T11:10:24.358Z,14.65
2019-05-28T11:11:17.815Z,14.65
2019-05-28T11:12:17.873Z,14.62
2019-05-28T11:13:17.905Z,14.65
2019-05-28T11:14:17.970Z,14.67
2019-05-28T11:15:17.990Z,14.72
2019-05-28T11:16:18.070Z,14.75
2019-05-28T11:17:18.095Z,14.54
2019-05-28T11:18:18.139Z,14.61
2019-05-28T11:19:18.190Z,14.64
2019-05-28T11:20:18.236Z,14.80
2019-05-28T11:21:18.380Z,14.83
2019-05-28T11:22:18.348Z,14.74
2019-05-28T11:23:18.395Z,14.78
2019-05-28T11:24:18.447Z,14.74
2019-05-28T11:25:18.495Z,14.64
2019-05-28T11:26:18.554Z,14.62
2019-05-28T11:27:18.609Z,14.60
2019-05-28T11:28:18.640Z,14.65
2019-05-28T11:29:18.703Z,14.71
2019-05-28T11:30:18.727Z,14.78
2019-05-28T11:31:18.784Z,14.72
2019-05-28T11:32:18.846Z,14.72
2019-05-28T11:33:18.877Z,14.91
2019-05-28T11:34:18.922Z,14.93
2019-05-28T11:35:18.971Z,15.05
2019-05-28T11:36:19.017Z,15.09
2019-05-28T11:37:19.100Z,15.09
2019-05-28T11:38:19.118Z,14.95
2019-05-28T11:39:19.166Z,15.05
2019-05-28T11:40:19.236Z,14.95
2019-05-28T11:41:19.265Z,14.91
2019-05-28T11:42:19.335Z,14.98
2019-05-28T11:43:19.364Z,14.95
2019-05-28T11:44:19.427Z,15.09
2019-05-28T11:45:19.469Z,15.06
2019-05-28T11:46:19.630Z,14.99
2019-05-28T11:47:19.586Z,15.05
2019-05-28T11:48:19.634Z,14.98
2019-05-28T11:49:19.668Z,14.93
2019-05-28T11:50:19.725Z,15.12
2019-05-28T11:51:19.758Z,15.17
2019-05-28T11:52:19.857Z,15.21
2019-05-28T11:53:19.888Z,15.21
2019-05-28T11:54:19.909Z,15.26
2019-05-28T11:55:19.976Z,15.21
2019-05-28T11:56:20.013Z,15.09
2019-05-28T11:57:20.076Z,15.27
2019-05-28T11:58:20.140Z,15.17
2019-05-28T11:59:20.162Z,15.30
2019-05-28T12:00:20.216Z,15.23
2019-05-28T12:01:33.768Z,15.21
2019-05-28T12:02:20.304Z,15.09
2019-05-28T12:03:20.387Z,15.11
2019-05-28T12:04:20.422Z,15.13
2019-05-28T12:05:20.456Z,15.24
2019-05-28T12:06:20.498Z,15.05
2019-05-28T12:07:26.193Z,15.03
2019-05-28T12:08:20.646Z,15.02
2019-05-28T12:09:20.649Z,15.08
2019-05-28T12:10:20.695Z,15.15
2019-05-28T12:11:20.758Z,15.20
2019-05-28T12:12:20.802Z,15.19
2019-05-28T12:13:20.876Z,15.19
2019-05-28T12:14:20.920Z,15.24
2019-05-28T12:15:20.941Z,15.19
2019-05-28T12:16:21.012Z,15.20
2019-05-28T12:17:38.020Z,15.01
2019-05-28T12:18:21.121Z,15.08
2019-05-28T12:19:21.140Z,15.11
2019-05-28T12:20:21.201Z,15.01
2019-05-28T12:21:21.246Z,14.95
2019-05-28T12:22:21.375Z,14.98
2019-05-28T12:23:21.366Z,15.02
2019-05-28T12:24:21.486Z,15.02
2019-05-28T12:25:21.437Z,15.08
2019-05-28T12:26:21.489Z,15.09
2019-05-28T12:27:21.536Z,15.11
2019-05-28T12:28:36.929Z,15.26
2019-05-28T12:29:21.699Z,15.28
2019-05-28T12:30:21.680Z,15.41
2019-05-28T12:31:21.753Z,15.41
2019-05-28T12:32:21.788Z,15.46
2019-05-28T12:33:21.839Z,15.52
2019-05-28T12:34:21.900Z,15.43
2019-05-28T12:35:29.126Z,15.27
2019-05-28T12:36:21.978Z,15.17
2019-05-28T12:37:22.066Z,15.28
2019-05-28T12:38:22.145Z,15.36
2019-05-28T12:39:22.316Z,15.35
2019-05-28T12:40:22.189Z,15.49
2019-05-28T12:41:22.950Z,15.42
2019-05-28T12:42:22.278Z,15.57
2019-05-28T12:43:22.326Z,15.59
2019-05-28T12:44:22.405Z,15.45
2019-05-28T12:45:35.181Z,15.48
2019-05-28T12:46:22.479Z,15.48
2019-05-28T12:47:22.524Z,15.56
2019-05-28T12:48:22.579Z,15.68
2019-05-28T12:49:22.748Z,15.52
2019-05-28T12:50:22.679Z,15.54
2019-05-28T12:51:22.719Z,15.59
2019-05-28T12:52:22.778Z,15.70
2019-05-28T12:53:22.827Z,15.70